sensor_id;sensor_type;location;lat;lon;timestamp;temperature;humidity
20524;DHT22;10420;48.542;12.270;2023-05-24T00:02:33;14.30;99.90
20524;DHT22;10420;48.542;12.270;2023-05-24T00:07:34;14.20;99.90
20524;DHT22;10420;48.542;12.270;2023-05-24T00:12:36;14.10;99.90
20524;DHT22;10420;48.542;12.270;2023-05-24T00:17:36;13.80;99.90
20524;DHT22;10420;48.542;12.270;2023-05-24T00:22:41;13.80;99.90
20524;DHT22;10420;48.542;12.270;2023-05-24T00:27:41;13.90;99.90
20524;DHT22;10420;48.542;12.270;2023-05-24T00:32:42;13.60;99.90
20524;DHT22;10420;48.542;12.270;2023-05-24T00:37:42;13.70;99.90
20524;DHT22;10420;48.542;12.270;2023-05-24T00:42:44;13.80;99.90
20524;DHT22;10420;48.542;12.270;2023-05-24T00:47:45;14.00;99.90
20524;DHT22;10420;48.542;12.270;2023-05-24T00:52:46;14.10;99.90
20524;DHT22;10420;48.542;12.270;2023-05-24T00:57:50;13.90;99.90
20524;DHT22;10420;48.542;12.270;2023-05-24T01:02:52;13.90;99.90
20524;DHT22;10420;48.542;12.270;2023-05-24T01:08:14;13.90;99.90
20524;DHT22;10420;48.542;12.270;2023-05-24T01:13:37;13.80;99.90
20524;DHT22;10420;48.542;12.270;2023-05-24T01:18:47;13.90;99.90
20524;DHT22;10420;48.542;12.270;2023-05-24T01:24:05;13.80;99.90
20524;DHT22;10420;48.542;12.270;2023-05-24T01:29:09;13.90;99.90
20524;DHT22;10420;48.542;12.270;2023-05-24T01:34:10;13.50;99.90
20524;DHT22;10420;48.542;12.270;2023-05-24T01:39:11;13.30;99.90
20524;DHT22;10420;48.542;12.270;2023-05-24T01:44:22;13.50;99.90
20524;DHT22;10420;48.542;12.270;2023-05-24T01:49:29;13.60;99.90
20524;DHT22;10420;48.542;12.270;2023-05-24T01:54:32;13.70;99.90
20524;DHT22;10420;48.542;12.270;2023-05-24T01:59:39;13.70;99.90
20524;DHT22;10420;48.542;12.270;2023-05-24T02:04:41;13.40;99.90
20524;DHT22;10420;48.542;12.270;2023-05-24T02:09:42;13.30;99.90
20524;DHT22;10420;48.542;12.270;2023-05-24T02:14:42;13.30;99.90
20524;DHT22;10420;48.542;12.270;2023-05-24T02:19:44;13.50;99.90
20524;DHT22;10420;48.542;12.270;2023-05-24T02:24:44;13.60;99.90
20524;DHT22;10420;48.542;12.270;2023-05-24T02:29:47;13.50;99.90
20524;DHT22;10420;48.542;12.270;2023-05-24T02:34:48;13.40;99.90
20524;DHT22;10420;48.542;12.270;2023-05-24T02:39:48;13.50;99.90
20524;DHT22;10420;48.542;12.270;2023-05-24T02:44:49;13.60;99.90
20524;DHT22;10420;48.542;12.270;2023-05-24T02:49:52;13.60;99.90
20524;DHT22;10420;48.542;12.270;2023-05-24T02:54:53;13.50;99.90
20524;DHT22;10420;48.542;12.270;2023-05-24T02:59:56;13.60;99.90
20524;DHT22;10420;48.542;12.270;2023-05-24T03:04:57;13.70;99.90
20524;DHT22;10420;48.542;12.270;2023-05-24T03:09:57;13.80;99.90
20524;DHT22;10420;48.542;12.270;2023-05-24T03:14:58;13.80;99.90
20524;DHT22;10420;48.542;12.270;2023-05-24T03:19:59;13.90;99.90
20524;DHT22;10420;48.542;12.270;2023-05-24T03:25:00;13.70;99.90
20524;DHT22;10420;48.542;12.270;2023-05-24T03:30:01;13.40;99.90
20524;DHT22;10420;48.542;12.270;2023-05-24T03:35:02;13.40;99.90
20524;DHT22;10420;48.542;12.270;2023-05-24T03:40:03;13.40;99.90
20524;DHT22;10420;48.542;12.270;2023-05-24T03:45:05;13.30;99.90
20524;DHT22;10420;48.542;12.270;2023-05-24T03:50:06;13.30;99.90
20524;DHT22;10420;48.542;12.270;2023-05-24T03:55:07;13.30;99.90
20524;DHT22;10420;48.542;12.270;2023-05-24T04:00:08;13.20;99.90
20524;DHT22;10420;48.542;12.270;2023-05-24T04:05:10;13.20;99.90
20524;DHT22;10420;48.542;12.270;2023-05-24T04:10:11;13.20;99.90
20524;DHT22;10420;48.542;12.270;2023-05-24T04:15:12;13.20;99.90
20524;DHT22;10420;48.542;12.270;2023-05-24T04:20:14;13.30;99.90
20524;DHT22;10420;48.542;12.270;2023-05-24T04:25:15;13.20;99.90
20524;DHT22;10420;48.542;12.270;2023-05-24T04:30:15;13.30;99.90
20524;DHT22;10420;48.542;12.270;2023-05-24T04:35:16;13.30;99.90
20524;DHT22;10420;48.542;12.270;2023-05-24T04:40:17;13.50;99.90
20524;DHT22;10420;48.542;12.270;2023-05-24T04:45:22;13.50;99.90
20524;DHT22;10420;48.542;12.270;2023-05-24T04:50:23;13.30;99.90
20524;DHT22;10420;48.542;12.270;2023-05-24T04:55:23;13.50;99.90
20524;DHT22;10420;48.542;12.270;2023-05-24T05:00:24;13.50;99.90
20524;DHT22;10420;48.542;12.270;2023-05-24T05:05:25;13.50;99.90
20524;DHT22;10420;48.542;12.270;2023-05-24T05:10:25;13.40;99.90
20524;DHT22;10420;48.542;12.270;2023-05-24T05:15:26;13.70;99.90
20524;DHT22;10420;48.542;12.270;2023-05-24T05:20:27;13.80;99.90
20524;DHT22;10420;48.542;12.270;2023-05-24T05:25:27;14.40;99.90
20524;DHT22;10420;48.542;12.270;2023-05-24T05:30:30;18.60;99.90
20524;DHT22;10420;48.542;12.270;2023-05-24T05:35:31;19.80;99.90
20524;DHT22;10420;48.542;12.270;2023-05-24T05:40:32;20.10;99.90
20524;DHT22;10420;48.542;12.270;2023-05-24T05:45:33;19.20;99.90
20524;DHT22;10420;48.542;12.270;2023-05-24T05:50:33;17.90;99.90
20524;DHT22;10420;48.542;12.270;2023-05-24T05:55:35;17.40;99.90
20524;DHT22;10420;48.542;12.270;2023-05-24T06:00:35;17.60;99.90
20524;DHT22;10420;48.542;12.270;2023-05-24T06:05:36;17.40;99.90
20524;DHT22;10420;48.542;12.270;2023-05-24T06:10:37;17.60;99.90
20524;DHT22;10420;48.542;12.270;2023-05-24T06:15:37;17.90;99.90
20524;DHT22;10420;48.542;12.270;2023-05-24T06:20:38;18.30;99.90
20524;DHT22;10420;48.542;12.270;2023-05-24T06:25:39;18.20;99.90
20524;DHT22;10420;48.542;12.270;2023-05-24T06:30:39;18.40;99.90
20524;DHT22;10420;48.542;12.270;2023-05-24T06:35:40;18.70;99.90
20524;DHT22;10420;48.542;12.270;2023-05-24T06:40:41;18.70;99.90
20524;DHT22;10420;48.542;12.270;2023-05-24T06:45:42;18.90;99.90
20524;DHT22;10420;48.542;12.270;2023-05-24T06:50:42;19.00;99.90
20524;DHT22;10420;48.542;12.270;2023-05-24T06:55:44;19.50;99.90
20524;DHT22;10420;48.542;12.270;2023-05-24T07:00:45;19.10;99.90
20524;DHT22;10420;48.542;12.270;2023-05-24T07:05:46;18.80;99.90
20524;DHT22;10420;48.542;12.270;2023-05-24T07:10:47;18.70;99.90
20524;DHT22;10420;48.542;12.270;2023-05-24T07:15:48;19.20;99.90
20524;DHT22;10420;48.542;12.270;2023-05-24T07:20:48;18.10;99.90
20524;DHT22;10420;48.542;12.270;2023-05-24T07:25:49;19.20;99.90
20524;DHT22;10420;48.542;12.270;2023-05-24T07:30:50;19.20;99.90
20524;DHT22;10420;48.542;12.270;2023-05-24T07:35:51;19.60;99.90
20524;DHT22;10420;48.542;12.270;2023-05-24T07:40:51;20.30;99.90
20524;DHT22;10420;48.542;12.270;2023-05-24T07:45:52;20.40;99.90
20524;DHT22;10420;48.542;12.270;2023-05-24T07:50:53;19.20;99.90
20524;DHT22;10420;48.542;12.270;2023-05-24T07:55:54;19.60;99.90
20524;DHT22;10420;48.542;12.270;2023-05-24T08:00:55;20.20;99.90
20524;DHT22;10420;48.542;12.270;2023-05-24T08:05:56;19.00;99.90
20524;DHT22;10420;48.542;12.270;2023-05-24T08:10:57;17.90;99.90
20524;DHT22;10420;48.542;12.270;2023-05-24T08:15:58;18.10;99.90
20524;DHT22;10420;48.542;12.270;2023-05-24T08:20:58;19.10;99.90
20524;DHT22;10420;48.542;12.270;2023-05-24T08:25:59;19.80;99.90
20524;DHT22;10420;48.542;12.270;2023-05-24T08:31:00;20.70;99.90
20524;DHT22;10420;48.542;12.270;2023-05-24T08:36:00;21.00;99.90
20524;DHT22;10420;48.542;12.270;2023-05-24T08:41:04;20.80;99.90
20524;DHT22;10420;48.542;12.270;2023-05-24T08:46:06;20.70;99.90
20524;DHT22;10420;48.542;12.270;2023-05-24T08:51:07;20.30;99.90
20524;DHT22;10420;48.542;12.270;2023-05-24T08:56:08;20.40;99.90
20524;DHT22;10420;48.542;12.270;2023-05-24T09:01:10;19.60;99.90
20524;DHT22;10420;48.542;12.270;2023-05-24T09:06:16;19.70;99.90
20524;DHT22;10420;48.542;12.270;2023-05-24T09:11:17;20.40;99.90
20524;DHT22;10420;48.542;12.270;2023-05-24T09:16:18;19.50;99.90
20524;DHT22;10420;48.542;12.270;2023-05-24T09:21:18;20.20;99.90
20524;DHT22;10420;48.542;12.270;2023-05-24T09:26:19;19.50;99.90
20524;DHT22;10420;48.542;12.270;2023-05-24T09:31:34;19.10;99.90
20524;DHT22;10420;48.542;12.270;2023-05-24T09:36:35;18.90;99.90
20524;DHT22;10420;48.542;12.270;2023-05-24T09:41:42;18.30;99.90
20524;DHT22;10420;48.542;12.270;2023-05-24T09:46:43;19.30;99.90
20524;DHT22;10420;48.542;12.270;2023-05-24T09:51:45;19.20;99.90
20524;DHT22;10420;48.542;12.270;2023-05-24T09:56:46;18.60;99.90
20524;DHT22;10420;48.542;12.270;2023-05-24T10:01:47;18.80;99.90
20524;DHT22;10420;48.542;12.270;2023-05-24T10:06:53;19.20;99.90
20524;DHT22;10420;48.542;12.270;2023-05-24T10:11:55;18.80;99.90
20524;DHT22;10420;48.542;12.270;2023-05-24T10:16:56;18.20;99.90
20524;DHT22;10420;48.542;12.270;2023-05-24T10:21:59;18.00;99.90
20524;DHT22;10420;48.542;12.270;2023-05-24T10:27:04;18.30;99.90
20524;DHT22;10420;48.542;12.270;2023-05-24T10:32:08;19.60;99.90
20524;DHT22;10420;48.542;12.270;2023-05-24T10:37:08;19.70;99.90
20524;DHT22;10420;48.542;12.270;2023-05-24T10:42:09;19.00;99.90
20524;DHT22;10420;48.542;12.270;2023-05-24T10:47:13;18.90;99.90
20524;DHT22;10420;48.542;12.270;2023-05-24T10:52:15;18.40;99.90
20524;DHT22;10420;48.542;12.270;2023-05-24T10:57:21;18.40;99.90
20524;DHT22;10420;48.542;12.270;2023-05-24T11:02:26;18.40;99.90
20524;DHT22;10420;48.542;12.270;2023-05-24T11:07:27;17.70;99.90
20524;DHT22;10420;48.542;12.270;2023-05-24T11:12:30;17.60;99.90
20524;DHT22;10420;48.542;12.270;2023-05-24T11:23:13;17.70;99.90
20524;DHT22;10420;48.542;12.270;2023-05-24T11:28:14;17.00;99.90
20524;DHT22;10420;48.542;12.270;2023-05-24T11:33:16;17.20;99.90
20524;DHT22;10420;48.542;12.270;2023-05-24T11:38:20;17.40;99.90
20524;DHT22;10420;48.542;12.270;2023-05-24T11:43:21;17.50;99.90
20524;DHT22;10420;48.542;12.270;2023-05-24T11:48:21;17.50;99.90
20524;DHT22;10420;48.542;12.270;2023-05-24T11:53:23;17.40;99.90
20524;DHT22;10420;48.542;12.270;2023-05-24T11:58:25;17.10;99.90
20524;DHT22;10420;48.542;12.270;2023-05-24T12:03:28;17.40;99.90
20524;DHT22;10420;48.542;12.270;2023-05-24T12:08:29;17.60;99.90
20524;DHT22;10420;48.542;12.270;2023-05-24T12:13:30;17.20;99.90
20524;DHT22;10420;48.542;12.270;2023-05-24T12:18:31;17.30;99.90
20524;DHT22;10420;48.542;12.270;2023-05-24T12:23:31;17.00;99.90
20524;DHT22;10420;48.542;12.270;2023-05-24T12:28:36;17.00;99.90
20524;DHT22;10420;48.542;12.270;2023-05-24T12:33:38;16.70;99.90
20524;DHT22;10420;48.542;12.270;2023-05-24T12:38:39;17.00;99.90
20524;DHT22;10420;48.542;12.270;2023-05-24T12:43:41;17.20;99.90
20524;DHT22;10420;48.542;12.270;2023-05-24T12:48:43;16.90;99.90
20524;DHT22;10420;48.542;12.270;2023-05-24T12:53:44;17.50;99.90
20524;DHT22;10420;48.542;12.270;2023-05-24T12:58:45;17.40;99.90
20524;DHT22;10420;48.542;12.270;2023-05-24T13:03:46;17.70;99.90
20524;DHT22;10420;48.542;12.270;2023-05-24T13:08:47;17.40;99.90
20524;DHT22;10420;48.542;12.270;2023-05-24T13:13:48;17.90;99.90
20524;DHT22;10420;48.542;12.270;2023-05-24T13:18:49;17.80;99.90
20524;DHT22;10420;48.542;12.270;2023-05-24T13:23:50;17.80;99.90
20524;DHT22;10420;48.542;12.270;2023-05-24T13:28:51;17.00;99.90
20524;DHT22;10420;48.542;12.270;2023-05-24T13:33:52;17.50;99.90
20524;DHT22;10420;48.542;12.270;2023-05-24T13:38:53;17.60;99.90
20524;DHT22;10420;48.542;12.270;2023-05-24T13:43:53;17.60;99.90
20524;DHT22;10420;48.542;12.270;2023-05-24T13:48:55;17.90;99.90
20524;DHT22;10420;48.542;12.270;2023-05-24T13:53:56;17.40;99.90
20524;DHT22;10420;48.542;12.270;2023-05-24T13:59:00;17.60;99.90
20524;DHT22;10420;48.542;12.270;2023-05-24T14:04:02;17.90;99.90
20524;DHT22;10420;48.542;12.270;2023-05-24T14:09:04;17.70;99.90
20524;DHT22;10420;48.542;12.270;2023-05-24T14:14:06;17.70;99.90
20524;DHT22;10420;48.542;12.270;2023-05-24T14:19:07;17.80;99.90
20524;DHT22;10420;48.542;12.270;2023-05-24T14:24:08;17.60;99.90
20524;DHT22;10420;48.542;12.270;2023-05-24T14:29:09;17.00;99.90
20524;DHT22;10420;48.542;12.270;2023-05-24T14:34:10;17.40;99.90
20524;DHT22;10420;48.542;12.270;2023-05-24T14:39:10;17.30;99.90
20524;DHT22;10420;48.542;12.270;2023-05-24T14:44:11;17.80;99.90
20524;DHT22;10420;48.542;12.270;2023-05-24T14:49:12;17.80;99.90
20524;DHT22;10420;48.542;12.270;2023-05-24T14:54:12;18.10;99.90
20524;DHT22;10420;48.542;12.270;2023-05-24T14:59:13;18.00;99.90
20524;DHT22;10420;48.542;12.270;2023-05-24T15:04:15;17.80;99.90
20524;DHT22;10420;48.542;12.270;2023-05-24T15:09:16;17.60;99.90
20524;DHT22;10420;48.542;12.270;2023-05-24T15:14:16;17.80;99.90
20524;DHT22;10420;48.542;12.270;2023-05-24T15:19:17;17.50;99.90
20524;DHT22;10420;48.542;12.270;2023-05-24T15:24:17;17.50;99.90
20524;DHT22;10420;48.542;12.270;2023-05-24T15:29:18;17.50;99.90
20524;DHT22;10420;48.542;12.270;2023-05-24T15:34:19;17.40;99.90
20524;DHT22;10420;48.542;12.270;2023-05-24T15:39:20;17.20;99.90
20524;DHT22;10420;48.542;12.270;2023-05-24T15:44:20;17.60;99.90
20524;DHT22;10420;48.542;12.270;2023-05-24T15:49:21;17.70;99.90
20524;DHT22;10420;48.542;12.270;2023-05-24T15:54:22;17.60;99.90
20524;DHT22;10420;48.542;12.270;2023-05-24T15:59:23;17.90;99.90
20524;DHT22;10420;48.542;12.270;2023-05-24T16:04:23;17.50;99.90
20524;DHT22;10420;48.542;12.270;2023-05-24T16:09:24;17.80;99.90
20524;DHT22;10420;48.542;12.270;2023-05-24T16:14:25;17.70;99.90
20524;DHT22;10420;48.542;12.270;2023-05-24T16:19:25;17.80;99.90
20524;DHT22;10420;48.542;12.270;2023-05-24T16:24:26;17.90;99.90
20524;DHT22;10420;48.542;12.270;2023-05-24T16:29:27;17.70;99.90
20524;DHT22;10420;48.542;12.270;2023-05-24T16:34:28;17.70;99.90
20524;DHT22;10420;48.542;12.270;2023-05-24T16:39:29;17.70;99.90
20524;DHT22;10420;48.542;12.270;2023-05-24T16:44:29;17.30;99.90
20524;DHT22;10420;48.542;12.270;2023-05-24T16:49:30;17.50;99.90
20524;DHT22;10420;48.542;12.270;2023-05-24T16:54:30;17.50;99.90
20524;DHT22;10420;48.542;12.270;2023-05-24T16:59:32;17.20;99.90
20524;DHT22;10420;48.542;12.270;2023-05-24T17:04:33;17.40;99.90
20524;DHT22;10420;48.542;12.270;2023-05-24T17:09:34;17.20;99.90
20524;DHT22;10420;48.542;12.270;2023-05-24T17:14:34;17.20;99.90
20524;DHT22;10420;48.542;12.270;2023-05-24T17:19:35;17.20;99.90
20524;DHT22;10420;48.542;12.270;2023-05-24T17:24:36;17.00;99.90
20524;DHT22;10420;48.542;12.270;2023-05-24T17:29:37;17.00;99.90
20524;DHT22;10420;48.542;12.270;2023-05-24T17:34:37;17.00;99.90
20524;DHT22;10420;48.542;12.270;2023-05-24T17:39:38;17.00;99.90
20524;DHT22;10420;48.542;12.270;2023-05-24T17:44:38;16.80;99.90
20524;DHT22;10420;48.542;12.270;2023-05-24T17:49:39;16.70;99.90
20524;DHT22;10420;48.542;12.270;2023-05-24T17:54:40;16.40;99.90
20524;DHT22;10420;48.542;12.270;2023-05-24T17:59:40;16.30;99.90
20524;DHT22;10420;48.542;12.270;2023-05-24T18:04:41;15.90;99.90
20524;DHT22;10420;48.542;12.270;2023-05-24T18:09:41;15.80;99.90
20524;DHT22;10420;48.542;12.270;2023-05-24T18:14:42;15.80;99.90
20524;DHT22;10420;48.542;12.270;2023-05-24T18:19:43;15.70;99.90
20524;DHT22;10420;48.542;12.270;2023-05-24T18:24:44;15.50;99.90
20524;DHT22;10420;48.542;12.270;2023-05-24T18:29:44;15.50;99.90
20524;DHT22;10420;48.542;12.270;2023-05-24T18:34:45;15.30;99.90
20524;DHT22;10420;48.542;12.270;2023-05-24T18:39:46;15.30;99.90
20524;DHT22;10420;48.542;12.270;2023-05-24T18:44:46;15.20;99.90
20524;DHT22;10420;48.542;12.270;2023-05-24T18:49:47;15.10;99.90
20524;DHT22;10420;48.542;12.270;2023-05-24T18:54:47;15.20;99.90
20524;DHT22;10420;48.542;12.270;2023-05-24T18:59:49;14.90;99.90
20524;DHT22;10420;48.542;12.270;2023-05-24T19:04:50;14.90;99.90
20524;DHT22;10420;48.542;12.270;2023-05-24T19:09:51;14.90;99.90
20524;DHT22;10420;48.542;12.270;2023-05-24T19:14:52;14.90;99.90
20524;DHT22;10420;48.542;12.270;2023-05-24T19:19:53;14.70;99.90
20524;DHT22;10420;48.542;12.270;2023-05-24T19:24:53;14.60;99.90
20524;DHT22;10420;48.542;12.270;2023-05-24T19:29:55;14.20;99.90
20524;DHT22;10420;48.542;12.270;2023-05-24T19:34:58;14.50;99.90
20524;DHT22;10420;48.542;12.270;2023-05-24T19:39:58;14.50;99.90
20524;DHT22;10420;48.542;12.270;2023-05-24T19:44:59;14.10;99.90
20524;DHT22;10420;48.542;12.270;2023-05-24T19:50:00;14.30;99.90
20524;DHT22;10420;48.542;12.270;2023-05-24T19:55:01;14.40;99.90
20524;DHT22;10420;48.542;12.270;2023-05-24T20:00:02;14.10;99.90
20524;DHT22;10420;48.542;12.270;2023-05-24T20:05:04;13.80;99.90
20524;DHT22;10420;48.542;12.270;2023-05-24T20:10:05;13.90;99.90
20524;DHT22;10420;48.542;12.270;2023-05-24T20:15:07;13.40;99.90
20524;DHT22;10420;48.542;12.270;2023-05-24T20:20:08;13.50;99.90
20524;DHT22;10420;48.542;12.270;2023-05-24T20:25:09;13.50;99.90
20524;DHT22;10420;48.542;12.270;2023-05-24T20:30:11;13.20;99.90
20524;DHT22;10420;48.542;12.270;2023-05-24T20:35:11;13.10;99.90
20524;DHT22;10420;48.542;12.270;2023-05-24T20:40:19;13.50;99.90
20524;DHT22;10420;48.542;12.270;2023-05-24T20:45:20;13.30;99.90
20524;DHT22;10420;48.542;12.270;2023-05-24T20:50:21;13.60;99.90
20524;DHT22;10420;48.542;12.270;2023-05-24T20:55:22;13.60;99.90
20524;DHT22;10420;48.542;12.270;2023-05-24T21:00:22;13.30;99.90
20524;DHT22;10420;48.542;12.270;2023-05-24T21:05:23;13.20;99.90
20524;DHT22;10420;48.542;12.270;2023-05-24T21:10:23;13.40;99.90
20524;DHT22;10420;48.542;12.270;2023-05-24T21:15:27;13.50;99.90
20524;DHT22;10420;48.542;12.270;2023-05-24T21:20:27;13.60;99.90
20524;DHT22;10420;48.542;12.270;2023-05-24T21:25:28;13.40;99.90
20524;DHT22;10420;48.542;12.270;2023-05-24T21:30:29;13.40;99.90
20524;DHT22;10420;48.542;12.270;2023-05-24T21:35:30;13.50;99.90
20524;DHT22;10420;48.542;12.270;2023-05-24T21:40:31;13.20;99.90
20524;DHT22;10420;48.542;12.270;2023-05-24T21:45:32;13.10;99.90
20524;DHT22;10420;48.542;12.270;2023-05-24T21:50:33;13.10;99.90
20524;DHT22;10420;48.542;12.270;2023-05-24T21:55:34;13.30;99.90
20524;DHT22;10420;48.542;12.270;2023-05-24T22:00:35;13.30;99.90
20524;DHT22;10420;48.542;12.270;2023-05-24T22:05:36;13.20;99.90
20524;DHT22;10420;48.542;12.270;2023-05-24T22:10:36;13.20;99.90
20524;DHT22;10420;48.542;12.270;2023-05-24T22:15:37;13.20;99.90
20524;DHT22;10420;48.542;12.270;2023-05-24T22:20:38;13.30;99.90
20524;DHT22;10420;48.542;12.270;2023-05-24T22:25:38;13.00;99.90
20524;DHT22;10420;48.542;12.270;2023-05-24T22:30:39;13.20;99.90
20524;DHT22;10420;48.542;12.270;2023-05-24T22:35:41;13.20;99.90
20524;DHT22;10420;48.542;12.270;2023-05-24T22:40:42;12.90;99.90
20524;DHT22;10420;48.542;12.270;2023-05-24T22:45:45;12.90;99.90
20524;DHT22;10420;48.542;12.270;2023-05-24T22:50:48;12.90;99.90
20524;DHT22;10420;48.542;12.270;2023-05-24T22:55:49;12.60;99.90
20524;DHT22;10420;48.542;12.270;2023-05-24T23:00:50;12.40;99.90
20524;DHT22;10420;48.542;12.270;2023-05-24T23:05:51;12.40;99.90
20524;DHT22;10420;48.542;12.270;2023-05-24T23:10:52;12.40;99.90
20524;DHT22;10420;48.542;12.270;2023-05-24T23:15:57;12.40;99.90
20524;DHT22;10420;48.542;12.270;2023-05-24T23:20:58;12.30;99.90
20524;DHT22;10420;48.542;12.270;2023-05-24T23:25:59;12.10;99.90
20524;DHT22;10420;48.542;12.270;2023-05-24T23:31:00;12.40;99.90
20524;DHT22;10420;48.542;12.270;2023-05-24T23:36:01;12.60;99.90
20524;DHT22;10420;48.542;12.270;2023-05-24T23:41:01;12.90;99.90
20524;DHT22;10420;48.542;12.270;2023-05-24T23:46:02;12.80;99.90
20524;DHT22;10420;48.542;12.270;2023-05-24T23:51:03;12.60;99.90
20524;DHT22;10420;48.542;12.270;2023-05-24T23:56:04;12.60;99.90
